Beacon Sw Bulker — 3EMX3 — position and weather

sailwx.info

Track history (hours):
 
Tides and Currents Weather Stations Pressure Air Temp Water Temp Dewpoint Dewpoint Depression Visibility Wind Speed Wind Dir Waves Ship Positions

Beacon Sw Bulker

Last reported at 2017-Sep-15 05:31 UTC. Time now 2017-Sep-25 11:28 UTC.
Position N 29°55' W 121°58'.
Warning: this ship's position is 10 days out of date.

Length 295 m; draft 10.2 m.

Type: Tanker. MMSI: 370895000.

Date/timePositionNaut miles runAvg speedWind from/ knotsBaromVisibWave heightAir tempDewpointWater temp
2017-Sep-15 05:31N 29°55' W 121°58'7415.3
2017-Sep-15 00:41N 30°41' W 123°04'418.8
2017-Sep-15 00:29N 30°43' W 123°08'3519.1
2017-Sep-14 22:39N 31°05' W 123°40'818.9
2017-Sep-14 22:13N 31°10' W 123°47'418.7
2017-Sep-14 22:00N 31°13' W 123°51'1018.8
2017-Sep-14 21:28N 31°19' W 123°60'918.9
2017-Sep-14 21:00N 31°24' W 124°08'1018.5
2017-Sep-14 20:27N 31°31' W 124°17'818.5
2017-Sep-14 20:00N 31°36' W 124°25'918.5
2017-Sep-14 19:30N 31°42' W 124°33'3112.7
2017-Sep-14 17:06N 31°60' W 125°03'218.9
2017-Sep-14 17:00N 32°01' W 125°04'11319.0
2017-Sep-14 11:04N 33°09' W 126°51'118.9
2017-Sep-14 11:00N 33°10' W 126°52'5619.0
2017-Sep-14 08:04N 33°43' W 127°46'719.0
2017-Sep-14 07:42N 33°47' W 127°53'1219.1
2017-Sep-14 07:05N 33°54' W 128°04'219.0
2017-Sep-14 07:00N 33°55' W 128°06'919.1
2017-Sep-14 06:30N 34°00' W 128°15'1019.0
2017-Sep-14 06:00N 34°06' W 128°24'2619.0
2017-Sep-14 04:40N 34°20' W 128°49'319.0
2017-Sep-14 04:30N 34°22' W 128°52'1018.8
2017-Sep-14 03:57N 34°28' W 129°02'1118.9
2017-Sep-14 03:24N 34°34' W 129°13'3218.8
2017-Sep-14 01:41N 34°53' W 129°45'319.0
2017-Sep-14 01:30N 34°55' W 129°48'  
Track history (hours):
 
Tides and Currents Weather Stations Pressure Air Temp Water Temp Dewpoint Dewpoint Depression Visibility Wind Speed Wind Dir Waves Ship Positions

Beacon Sw Bulker

Last reported at 2017-Sep-15 05:31 UTC. Time now 2017-Sep-25 11:28 UTC.
Position N 29°55' W 121°58'.
Warning: this ship's position is 10 days out of date.

Length 295 m; draft 10.2 m.

Type: Tanker. MMSI: 370895000.

Date/timePositionNaut miles runAvg speedWind from/ knotsBaromVisibWave heightAir tempDewpointWater temp
2017-Sep-15 05:31N 29°55' W 121°58'7415.3
2017-Sep-15 00:41N 30°41' W 123°04'418.8
2017-Sep-15 00:29N 30°43' W 123°08'3519.1
2017-Sep-14 22:39N 31°05' W 123°40'818.9
2017-Sep-14 22:13N 31°10' W 123°47'418.7
2017-Sep-14 22:00N 31°13' W 123°51'1018.8
2017-Sep-14 21:28N 31°19' W 123°60'918.9
2017-Sep-14 21:00N 31°24' W 124°08'1018.5
2017-Sep-14 20:27N 31°31' W 124°17'818.5
2017-Sep-14 20:00N 31°36' W 124°25'918.5
2017-Sep-14 19:30N 31°42' W 124°33'3112.7
2017-Sep-14 17:06N 31°60' W 125°03'218.9
2017-Sep-14 17:00N 32°01' W 125°04'11319.0
2017-Sep-14 11:04N 33°09' W 126°51'118.9
2017-Sep-14 11:00N 33°10' W 126°52'5619.0
2017-Sep-14 08:04N 33°43' W 127°46'719.0
2017-Sep-14 07:42N 33°47' W 127°53'1219.1
2017-Sep-14 07:05N 33°54' W 128°04'219.0
2017-Sep-14 07:00N 33°55' W 128°06'919.1
2017-Sep-14 06:30N 34°00' W 128°15'1019.0
2017-Sep-14 06:00N 34°06' W 128°24'2619.0
2017-Sep-14 04:40N 34°20' W 128°49'319.0
2017-Sep-14 04:30N 34°22' W 128°52'1018.8
2017-Sep-14 03:57N 34°28' W 129°02'1118.9
2017-Sep-14 03:24N 34°34' W 129°13'3218.8
2017-Sep-14 01:41N 34°53' W 129°45'319.0
2017-Sep-14 01:30N 34°55' W 129°48'  

Dump ship's entire track history